Terminal Aerodrome Forecast
Issued by NWS Detroit/Pontiac, MI

Home | Current Version | Previous Version | Text Only | Print | Product List | Glossary On
Versions: 1 2 3 4 5 6 7 8 9 10 11 12 13 14 15 16 17 18 19 20 21 22 23 24 25 26 27 28 29 30
000
FTUS43 KDTX 022320
TAFDTW
TAF
KDTW 022320Z 0300/0406 22017G25KT P6SM SCT070 BKN200
     FM030200 23014G22KT P6SM BKN070 OVC150
      TEMPO 0303/0306 2SM TSRA BKN035CB OVC070
     FM030800 25010KT 6SM BR BKN035
     FM031400 29012KT P6SM SCT050=

USA.gov is the U.S. government's official web portal to all federal, state and local government web resources and services.